Archival Weather

Chicago O'Hare International

Chicago, Illinois (KORD)

Report from: Friday, December 2, 2022 1:51 AM CST
Current time: Friday, June 21, 2024 2:10 AM CDT

Current weather – Weather history – Daily summaries
Weather forecast

Temperature2.8°C (37.0°F)
Wind chill-2.0°C (28.5°F)
Dew point-7.2°C (19.0°F)
Winds 12 kts (6.2 m/s, 13.8 mph) South (190°)
Wind gusts 26 kts (13.4 m/s, 29.9 mph)
Peak wind 26 kts (13.4 m/s, 29.9 mph) South-Southwest (200°) at 07:46
Visibility10 mi. (16.1 km)
Clouds Ceiling: Broken clouds 4,400 ft. (1,341 m)
Overcast 5,000 ft. (1,524 m)
Altimeter30.11 in.Hg (1020 mB)
Relative humidity48 %
Density altitude-1,659 ft. (-506 m)
Sea-level pressure102.0 kPa (1020 mB, 30.13 in.Hg)
Remarks Automated weather observing station with precipitation discriminator
Flight conditions Visual Meteorological Conditions
Raw dataKORD 020751Z 19012G26KT 10SM BKN044 OVC050 03/M07 A3011 RMK AO2 PK WND 20026/0746 SLP202 T00281072
An error has occurred. This application may no longer respond until reloaded. Reload 🗙